»·PEaware :: PIN8 EDDF-RJAA

PIN8 :: EDDF-RJAA

FLIGHT INFORMATION

Flight Status: Arrived
Operator: Unknown
More flights by this operator :: More flights under this callsign
Pilot: Will D. (10979)
Aircraft: AIRBUS A380-800
(A388)
More flights by this aircraft type
Origin: EDDF Frankfurt/Main
Germany
Destination: RJAA New Tokyo Intl (Narita)
Japan
More flights between these airports :: More routes between these airports
Route: TOBA9D TOBAK N858 ERSIL DCT BINKA/K0906F350 DCT KUNER B810 RONUN/N0489F350 L134 GARSO DCT SOKVA Y119 PIVUN P862 EKLON Y169 TUKMA/N0490F340 L738 MEGAS/K0907F350 P989 NASBI G722 ARKUK B152 RIMAG L168 RUKOL/K0909F370 L168 LEBNA A946 TORMA N992 HAB L168 IGROD/N0497F370 B451 KADBO R211 GTC Y303 KAMOH Y301 SHELY Y30 SWAMP SWAMSA
File this flight plan on PilotEdge
Remarks:
Altitude:
(Current/Filed)
33,000ft
Speed:
(Current/Filed)
475kts
Departed: 07-May-18 09:53 AM
Arrived: 07-May-18 08:44 PM
Distance/Time
Traveled:
5054nm/10:51
Distance/Time
To Go:
Arrived

Flight Plot

Page will automatically refresh every two minutes.

Flight plan parsing failed; only flown route is shown


Map Options




Map Legend


Flown Route
Filed Route
Departure Airport
Arrival Airport
Navaid (VOR, NDB)
Fix

Horizontal Profiles

Position Reports

Time Latitude Longitude Heading Altitude Ground
Speed
07-May-18 09:14 50.049689 8.575753 23 382ft 0kts
07-May-18 09:15 50.049689 8.575753 23 382ft 0kts
07-May-18 09:16 50.049689 8.575753 23 382ft 0kts
07-May-18 09:17 50.049689 8.575753 23 382ft 0kts
07-May-18 09:18 50.049689 8.575753 23 382ft 0kts
07-May-18 09:19 50.049689 8.575753 23 382ft 0kts
07-May-18 09:20 50.049689 8.575753 23 382ft 0kts
07-May-18 09:21 50.049689 8.575753 23 382ft 0kts
07-May-18 09:22 50.049689 8.575753 23 382ft 0kts
07-May-18 09:23 50.049689 8.575753 23 382ft 0kts
07-May-18 09:24 50.049689 8.575753 23 382ft 0kts
07-May-18 09:25 50.049689 8.575753 23 382ft 0kts
07-May-18 09:26 50.049689 8.575753 23 382ft 0kts
07-May-18 09:27 50.049689 8.575753 23 382ft 0kts
07-May-18 09:28 50.049689 8.575753 23 382ft 0kts
07-May-18 09:29 50.049689 8.575753 23 382ft 0kts
07-May-18 09:30 50.049689 8.575753 23 382ft 0kts
07-May-18 09:31 50.049689 8.575753 23 382ft 0kts
07-May-18 09:32 50.049689 8.575753 23 382ft 0kts
07-May-18 09:33 50.049689 8.575753 23 382ft 0kts
07-May-18 09:34 50.049689 8.575753 23 382ft 0kts
07-May-18 09:35 50.049689 8.575753 23 382ft 0kts
07-May-18 09:36 50.049462 8.575529 47 382ft 2kts
07-May-18 09:37 50.049422 8.574757 112 382ft 2kts
07-May-18 09:38 50.047396 8.579014 190 382ft 12kts
07-May-18 09:39 50.045099 8.575508 157 382ft 13kts
07-May-18 09:40 50.043612 8.572505 249 382ft 25kts
07-May-18 09:41 50.041181 8.562327 249 382ft 35kts
07-May-18 09:42 50.038594 8.551722 249 382ft 17kts
07-May-18 09:43 50.036580 8.543224 249 382ft 22kts
07-May-18 09:44 50.034536 8.534714 250 382ft 17kts
07-May-18 09:45 50.033567 8.533511 142 382ft 0kts
07-May-18 09:46 50.033566 8.533512 142 382ft 0kts
07-May-18 09:47 50.032856 8.535288 85 382ft 3kts
07-May-18 09:48 50.032870 8.535397 80 382ft 0kts
07-May-18 09:49 50.032870 8.535398 80 382ft 0kts
07-May-18 09:50 50.032870 8.535399 80 382ft 0kts
07-May-18 09:51 50.032870 8.535401 80 382ft 0kts
07-May-18 09:52 50.032879 8.535490 80 382ft 8kts
07-May-18 09:53 50.044805 8.585411 70 2636ft 172kts
07-May-18 09:54 50.063252 8.667884 69 6256ft 234kts
07-May-18 09:55 50.113940 8.737859 32 11157ft 275kts
07-May-18 09:56 50.189354 8.789729 27 16720ft 311kts
07-May-18 09:57 50.274146 8.832797 10 22452ft 337kts
07-May-18 09:58 50.373094 8.826832 359 27512ft 370kts
07-May-18 09:59 50.479098 8.805994 358 32114ft 398kts
07-May-18 10:00 50.584552 8.866871 48 33118ft 444kts
07-May-18 10:01 50.654402 9.026559 61 33098ft 444kts
07-May-18 10:02 50.714428 9.197891 63 33099ft 448kts
07-May-18 10:03 50.770412 9.373611 65 33109ft 449kts
07-May-18 10:04 50.825366 9.551049 65 33107ft 449kts
07-May-18 10:05 50.880157 9.728577 65 33109ft 449kts
07-May-18 10:06 50.934840 9.907058 65 33113ft 446kts
07-May-18 10:07 50.985355 10.071975 65 33122ft 388kts
07-May-18 10:08 51.031016 10.221092 65 33137ft 370kts
07-May-18 10:09 51.095086 10.348557 44 33145ft 376kts
07-May-18 10:10 51.175079 10.456779 43 33139ft 377kts
07-May-18 10:11 51.254904 10.565303 43 33140ft 378kts
07-May-18 10:12 51.339336 10.681046 43 33150ft 438kts
07-May-18 10:13 51.433953 10.810992 43 33146ft 451kts
07-May-18 10:14 51.529438 10.943451 43 33148ft 454kts
07-May-18 10:15 51.625101 11.076992 43 33148ft 455kts
07-May-18 10:16 51.720529 11.210939 43 33149ft 456kts
07-May-18 10:17 51.816308 11.346102 43 33150ft 456kts
07-May-18 10:18 51.911571 11.481318 43 33150ft 457kts
07-May-18 10:19 52.006965 11.617591 43 33150ft 457kts
07-May-18 10:20 52.102583 11.754527 43 33149ft 458kts
07-May-18 10:21 52.197804 11.892341 43 33154ft 458kts
07-May-18 10:22 52.292829 12.030690 43 33157ft 458kts
07-May-18 10:23 52.388033 12.170034 43 33165ft 461kts
07-May-18 10:24 52.487166 12.315402 43 33167ft 471kts
07-May-18 10:25 52.584670 12.459497 43 33175ft 471kts
07-May-18 10:26 52.681881 12.603965 43 33185ft 472kts
07-May-18 10:27 52.779462 12.750086 43 33188ft 473kts
07-May-18 10:28 52.876674 12.896923 43 33201ft 473kts
07-May-18 10:29 52.973828 13.044859 43 33210ft 474kts
07-May-18 10:30 53.070485 13.193181 43 33215ft 475kts
07-May-18 10:31 53.167441 13.343127 43 33222ft 475kts
07-May-18 10:32 53.264298 13.493852 43 33231ft 476kts
07-May-18 10:33 53.361231 13.644726 43 33248ft 477kts
07-May-18 10:34 53.458539 13.796852 43 33241ft 478kts
07-May-18 10:35 53.555779 13.950120 43 33249ft 480kts
07-May-18 10:36 53.652996 14.104368 43 33263ft 480kts
07-May-18 10:37 53.749755 14.259890 46 33277ft 481kts
07-May-18 10:38 53.827000 14.438919 56 33286ft 480kts
07-May-18 10:39 53.898718 14.629158 57 33270ft 479kts
07-May-18 10:40 53.970411 14.820020 56 33226ft 477kts
07-May-18 10:41 54.042522 15.010290 56 33224ft 484kts
07-May-18 10:42 54.115387 15.202970 56 33229ft 483kts
07-May-18 10:43 54.187754 15.395395 56 33231ft 482kts
07-May-18 10:44 54.259704 15.588647 56 33235ft 480kts
07-May-18 10:45 54.330756 15.781872 57 33234ft 480kts
07-May-18 10:46 54.401511 15.975483 57 33233ft 479kts
07-May-18 10:47 54.472184 16.170368 57 33234ft 480kts
07-May-18 10:48 54.542551 16.365312 57 33242ft 480kts
07-May-18 10:49 54.612885 16.562039 57 33247ft 482kts
07-May-18 10:50 54.683150 16.759543 57 33249ft 483kts
07-May-18 10:51 54.753052 16.958336 57 33246ft 484kts
07-May-18 10:52 54.822677 17.157712 57 33248ft 484kts
07-May-18 10:53 54.892075 17.358429 57 33249ft 484kts
07-May-18 10:54 54.960972 17.559459 57 33250ft 485kts
07-May-18 10:55 55.029801 17.761867 57 33250ft 486kts
07-May-18 10:56 55.098539 17.965401 57 33250ft 487kts
07-May-18 10:57 55.167081 18.169652 57 33251ft 487kts
07-May-18 10:58 55.235232 18.374862 57 33251ft 487kts
07-May-18 10:59 55.317739 18.560985 44 33260ft 484kts
07-May-18 11:00 55.412629 18.727886 42 33257ft 484kts
07-May-18 11:01 55.507477 18.896852 43 33257ft 484kts
07-May-18 11:02 55.601285 19.067083 43 33257ft 484kts
07-May-18 11:03 55.694861 19.238374 43 33257ft 485kts
07-May-18 11:03 55.772914 19.382406 43 33257ft 485kts
07-May-18 11:05 55.881929 19.585053 43 33257ft 487kts
07-May-18 11:06 55.975659 19.760547 43 33257ft 488kts
07-May-18 11:06 56.053506 19.907273 43 33258ft 489kts
07-May-18 11:07 56.146404 20.085564 46 33258ft 490kts
07-May-18 11:08 56.233716 20.273612 48 33258ft 491kts
07-May-18 11:09 56.319528 20.464983 48 33259ft 492kts
07-May-18 11:10 56.405343 20.657980 48 33259ft 493kts
07-May-18 11:11 56.490940 20.852038 48 33260ft 494kts
07-May-18 11:12 56.576235 21.047245 48 33260ft 494kts
07-May-18 11:13 56.661218 21.243334 48 33260ft 494kts
07-May-18 11:14 56.745796 21.440406 49 33259ft 494kts
07-May-18 11:15 56.830118 21.638081 49 33260ft 494kts
07-May-18 11:16 56.914264 21.837170 49 33260ft 495kts
07-May-18 11:17 56.998332 22.037373 49 33260ft 496kts
07-May-18 11:19 57.082379 22.238926 49 33260ft 497kts
07-May-18 11:20 57.165964 22.441471 49 33256ft 498kts
07-May-18 11:21 57.249586 22.646029 49 33246ft 499kts
07-May-18 11:22 57.332854 22.851338 49 33244ft 499kts
07-May-18 11:23 57.415683 23.057574 49 33247ft 500kts
07-May-18 11:24 57.498702 23.265933 49 33246ft 501kts
07-May-18 11:25 57.581365 23.474969 49 33244ft 503kts
07-May-18 11:26 57.664196 23.686021 49 33243ft 505kts
07-May-18 11:27 57.747072 23.898888 50 33244ft 507kts
07-May-18 11:28 57.829642 24.113280 50 33241ft 507kts
07-May-18 11:29 57.915047 24.322741 39 33225ft 500kts
07-May-18 11:30 58.025100 24.479608 30 33223ft 495kts
07-May-18 11:31 58.138094 24.628149 30 33221ft 496kts
07-May-18 11:32 58.250258 24.780278 31 33219ft 496kts
07-May-18 11:33 58.350440 24.960810 55 33208ft 513kts
07-May-18 11:34 58.408651 25.211168 65 33206ft 517kts
07-May-18 11:35 58.459320 25.468252 66 33200ft 518kts
07-May-18 11:36 58.509818 25.725282 67 33199ft 517kts
07-May-18 11:37 58.554447 25.987335 69 33199ft 518kts
07-May-18 11:38 58.597121 26.251761 69 33200ft 518kts
07-May-18 11:39 58.639632 26.514583 69 33200ft 516kts
07-May-18 11:40 58.681698 26.778847 69 33199ft 516kts
07-May-18 11:41 58.723131 27.042978 69 33195ft 516kts
07-May-18 11:42 58.775801 27.297873 60 33193ft 511kts
07-May-18 11:43 58.832111 27.550817 65 33189ft 514kts
07-May-18 11:44 58.881332 27.810322 66 33185ft 514kts
07-May-18 11:45 58.929335 28.071468 67 33181ft 516kts
07-May-18 11:46 58.976791 28.334248 67 33177ft 516kts
07-May-18 11:47 59.023671 28.597606 67 33161ft 516kts
07-May-18 11:48 59.070058 28.861530 67 33157ft 517kts
07-May-18 11:49 59.116015 29.126345 67 33154ft 517kts
07-May-18 11:50 59.161615 29.391968 68 33151ft 517kts
07-May-18 11:51 59.206948 29.658853 68 33148ft 518kts
07-May-18 11:52 59.251868 29.925881 68 33146ft 519kts
07-May-18 11:53 59.296588 30.194308 68 33145ft 519kts
07-May-18 11:54 59.364515 30.435728 46 33151ft 506kts
07-May-18 11:55 59.456081 30.645130 44 33146ft 504kts
07-May-18 11:56 59.547485 30.854946 45 33144ft 505kts
07-May-18 11:57 59.637566 31.068021 45 33143ft 506kts
07-May-18 11:58 59.727610 31.283547 45 33143ft 507kts
07-May-18 11:59 59.817086 31.500149 46 33143ft 509kts
07-May-18 12:00 59.906009 31.719276 46 33144ft 510kts
07-May-18 12:01 59.995139 31.940878 46 33140ft 511kts
07-May-18 12:02 60.083534 32.163156 47 33131ft 511kts
07-May-18 12:03 60.171480 32.386548 47 33132ft 511kts
07-May-18 12:04 60.258458 32.612936 49 33127ft 512kts
07-May-18 12:05 60.341518 32.847280 50 33128ft 514kts
07-May-18 12:06 60.423812 33.083645 50 33127ft 515kts
07-May-18 12:07 60.506145 33.322289 50 33125ft 516kts
07-May-18 12:08 60.588057 33.562405 51 33123ft 517kts
07-May-18 12:09 60.669471 33.803257 51 33121ft 517kts
07-May-18 12:10 60.750846 34.045673 51 33120ft 517kts
07-May-18 12:11 60.832239 34.289160 51 33119ft 518kts
07-May-18 12:12 60.915112 34.531246 45 33118ft 514kts
07-May-18 12:13 61.012988 34.743686 40 33117ft 510kts
07-May-18 12:14 61.113539 34.950851 40 33116ft 511kts
07-May-18 12:15 61.213401 35.161112 40 33116ft 512kts
07-May-18 12:16 61.312791 35.373050 41 33115ft 512kts
07-May-18 12:17 61.411364 35.586647 41 33115ft 513kts
07-May-18 12:18 61.509986 35.803841 41 33115ft 514kts
07-May-18 12:19 61.607958 36.021949 42 33115ft 514kts
07-May-18 12:20 61.705762 36.242509 42 33116ft 515kts
07-May-18 12:21 61.803557 36.464759 42 33116ft 515kts
07-May-18 12:22 61.900428 36.687276 42 33117ft 515kts
07-May-18 12:23 61.996963 36.911784 42 33118ft 514kts
07-May-18 12:24 62.093733 37.137240 42 33119ft 514kts
07-May-18 12:25 62.189916 37.363055 42 33120ft 513kts
07-May-18 12:26 62.285498 37.590872 43 33121ft 514kts
07-May-18 12:27 62.380937 37.820664 43 33122ft 514kts
07-May-18 12:28 62.476036 38.051678 43 33119ft 514kts
07-May-18 12:29 62.570440 38.282977 43 33120ft 514kts
07-May-18 12:30 62.664912 38.516910 43 33121ft 513kts
07-May-18 12:31 62.758666 38.751708 43 33123ft 513kts
07-May-18 12:32 62.851876 38.987259 44 33124ft 513kts
07-May-18 12:33 62.944985 39.224665 44 33126ft 513kts
07-May-18 12:34 63.037486 39.463177 44 33128ft 512kts
07-May-18 12:35 63.129043 39.703417 44 33129ft 512kts
07-May-18 12:36 63.220502 39.946590 45 33130ft 513kts
07-May-18 12:37 63.311483 40.190272 44 33132ft 511kts
07-May-18 12:38 63.401729 40.434656 45 33133ft 511kts
07-May-18 12:39 63.491606 40.681263 45 33134ft 511kts
07-May-18 12:40 63.581198 40.929279 45 33141ft 511kts
07-May-18 12:41 63.670503 41.177071 45 33141ft 511kts
07-May-18 12:42 63.759505 41.427431 45 33141ft 510kts
07-May-18 12:43 63.847824 41.678493 45 33141ft 510kts
07-May-18 12:44 63.935697 41.931874 46 33142ft 510kts
07-May-18 12:45 64.022846 42.186307 46 33142ft 510kts
07-May-18 12:46 64.109875 42.443163 46 33141ft 510kts
07-May-18 12:47 64.196361 42.700286 46 33141ft 509kts
07-May-18 12:48 64.281732 42.960950 50 33140ft 511kts
07-May-18 12:49 64.352567 43.246930 56 33138ft 515kts
07-May-18 12:50 64.419065 43.540014 56 33135ft 515kts
07-May-18 12:51 64.485443 43.833836 56 33134ft 514kts
07-May-18 12:52 64.551185 44.127738 56 33132ft 513kts
07-May-18 12:53 64.616365 44.423157 57 33129ft 513kts
07-May-18 12:54 64.680863 44.719560 57 33099ft 508kts
07-May-18 12:55 64.743484 45.015272 57 33085ft 505kts
07-May-18 12:56 64.805411 45.310058 57 33082ft 505kts
07-May-18 12:57 64.867310 45.606267 57 33082ft 504kts
07-May-18 12:58 64.930497 45.900360 56 33077ft 502kts
07-May-18 12:59 64.994512 46.194622 56 33074ft 502kts
07-May-18 13:00 65.057819 46.488870 57 33072ft 502kts
07-May-18 13:01 65.120685 46.785606 57 33070ft 503kts
07-May-18 13:02 65.182520 47.084842 58 33068ft 503kts
07-May-18 13:03 65.243710 47.383921 58 33066ft 503kts
07-May-18 13:04 65.304973 47.685011 59 33064ft 503kts
07-May-18 13:05 65.365031 47.987337 59 33062ft 503kts
07-May-18 13:06 65.424595 48.291003 59 33060ft 503kts
07-May-18 13:07 65.483834 48.597172 60 33059ft 503kts
07-May-18 13:08 65.541757 48.905204 61 33057ft 505kts
07-May-18 13:09 65.599423 49.213350 61 33056ft 504kts
07-May-18 13:10 65.656533 49.523830 62 33055ft 505kts
07-May-18 13:11 65.713291 49.836222 62 33053ft 505kts
07-May-18 13:12 65.768954 50.150013 63 33052ft 506kts
07-May-18 13:13 65.823818 50.465861 64 33050ft 506kts
07-May-18 13:14 65.878396 50.781746 63 33050ft 505kts
07-May-18 13:14 65.923597 51.046782 64 33017ft 505kts
07-May-18 13:15 65.976865 51.365536 65 33016ft 506kts
07-May-18 13:16 66.029581 51.686484 66 33016ft 506kts
07-May-18 13:17 66.081723 52.008169 66 33016ft 506kts
07-May-18 13:18 66.133455 52.331704 66 33016ft 506kts
07-May-18 13:19 66.183715 52.655889 67 33016ft 506kts
07-May-18 13:20 66.233374 52.982245 67 33016ft 506kts
07-May-18 13:21 66.282487 53.309286 67 33011ft 505kts
07-May-18 13:22 66.331241 53.636938 68 33012ft 505kts
07-May-18 13:23 66.379534 53.965615 68 33027ft 505kts
07-May-18 13:24 66.426542 54.295994 68 33027ft 504kts
07-May-18 13:25 66.472646 54.626712 69 33027ft 503kts
07-May-18 13:26 66.517943 54.958112 69 33025ft 502kts
07-May-18 13:27 66.562670 55.290335 69 33026ft 502kts
07-May-18 13:28 66.606605 55.622959 69 33026ft 501kts
07-May-18 13:29 66.649844 55.956734 69 33025ft 501kts
07-May-18 13:30 66.692495 56.291021 69 33023ft 500kts
07-May-18 13:31 66.734565 56.625482 70 33018ft 500kts
07-May-18 13:32 66.776082 56.961021 70 33020ft 500kts
07-May-18 13:34 66.816605 57.297608 70 33020ft 499kts
07-May-18 13:35 66.855964 57.636082 70 33020ft 499kts
07-May-18 13:36 66.894627 57.975479 71 33019ft 499kts
07-May-18 13:37 66.932701 58.314759 71 33019ft 498kts
07-May-18 13:38 66.969810 58.655258 71 32982ft 498kts
07-May-18 13:39 67.008690 58.994448 70 32981ft 497kts
07-May-18 13:40 67.047016 59.334953 70 32983ft 497kts
07-May-18 13:41 67.084386 59.676440 70 32985ft 497kts
07-May-18 13:42 67.121119 60.018501 70 32986ft 497kts
07-May-18 13:43 67.157291 60.362092 71 32986ft 497kts
07-May-18 13:44 67.192797 60.705417 71 32990ft 496kts
07-May-18 13:45 67.227862 61.049420 71 32997ft 496kts
07-May-18 13:46 67.261552 61.395709 71 32989ft 497kts
07-May-18 13:47 67.294402 61.741818 72 32988ft 496kts
07-May-18 13:48 67.326566 62.089727 72 32989ft 496kts
07-May-18 13:49 67.358124 62.437515 72 32990ft 496kts
07-May-18 13:50 67.389437 62.786428 72 32991ft 495kts
07-May-18 13:51 67.419744 63.136403 73 32992ft 495kts
07-May-18 13:52 67.448683 63.486928 73 32992ft 495kts
07-May-18 13:53 67.476940 63.837785 73 32993ft 494kts
07-May-18 13:54 67.513051 64.181437 66 32994ft 489kts
07-May-18 13:55 67.558130 64.516104 65 32994ft 488kts
07-May-18 13:56 67.602852 64.851972 66 32995ft 489kts
07-May-18 13:57 67.646284 65.191064 66 32995ft 489kts
07-May-18 13:58 67.688651 65.530645 66 32983ft 488kts
07-May-18 13:59 67.730424 65.870919 66 32983ft 488kts
07-May-18 14:00 67.771410 66.211886 67 32983ft 488kts
07-May-18 14:01 67.811639 66.554773 67 32984ft 489kts
07-May-18 14:02 67.851789 66.900022 67 32984ft 490kts
07-May-18 14:03 67.891668 67.245488 67 32980ft 490kts
07-May-18 14:04 67.930277 67.592216 68 32980ft 490kts
07-May-18 14:05 67.968467 67.941438 68 32980ft 490kts
07-May-18 14:06 68.005572 68.290070 69 32981ft 490kts
07-May-18 14:07 68.041635 68.641192 69 32981ft 490kts
07-May-18 14:08 68.077297 68.992263 70 32981ft 490kts
07-May-18 14:09 68.112281 69.345794 71 33001ft 491kts
07-May-18 14:10 68.146666 69.699859 71 33002ft 491kts
07-May-18 14:11 68.179946 70.056428 72 33003ft 492kts
07-May-18 14:12 68.212570 70.414536 72 33003ft 492kts
07-May-18 14:13 68.244773 70.772587 73 33003ft 491kts
07-May-18 14:14 68.275985 71.130479 73 33003ft 491kts
07-May-18 14:15 68.306155 71.490883 74 33003ft 491kts
07-May-18 14:16 68.335788 71.851554 74 33003ft 492kts
07-May-18 14:17 68.364817 72.213689 75 33004ft 492kts
07-May-18 14:18 68.392971 72.577577 75 33004ft 491kts
07-May-18 14:19 68.420249 72.940139 76 33004ft 490kts
07-May-18 14:20 68.446966 73.304203 76 33004ft 490kts
07-May-18 14:21 68.465832 73.671428 88 32997ft 495kts
07-May-18 14:22 68.453461 74.044931 94 32993ft 497kts
07-May-18 14:23 68.436589 74.418366 95 32993ft 496kts
07-May-18 14:24 68.419723 74.789911 95 33018ft 495kts
07-May-18 14:25 68.401874 75.159528 95 33018ft 493kts
07-May-18 14:26 68.384185 75.528429 96 33018ft 493kts
07-May-18 14:27 68.365431 75.896472 96 33018ft 493kts
07-May-18 14:28 68.346094 76.264747 97 33018ft 492kts
07-May-18 14:29 68.325813 76.630967 97 32997ft 492kts
07-May-18 14:30 68.304983 76.996243 97 32985ft 491kts
07-May-18 14:31 68.283345 77.359716 97 32988ft 490kts
07-May-18 14:32 68.260952 77.723761 98 32988ft 491kts
07-May-18 14:33 68.237829 78.086001 98 32987ft 491kts
07-May-18 14:34 68.213791 78.447237 99 32987ft 490kts
07-May-18 14:35 68.188944 78.808943 99 32987ft 490kts
07-May-18 14:36 68.163062 79.167604 99 32986ft 489kts
07-May-18 14:37 68.136806 79.526792 99 32986ft 489kts
07-May-18 14:38 68.109421 79.883689 100 32986ft 490kts
07-May-18 14:39 68.081620 80.241421 100 32985ft 490kts
07-May-18 14:40 68.052731 80.596751 100 32985ft 489kts
07-May-18 14:41 68.023337 80.952050 101 32985ft 488kts
07-May-18 14:42 67.992975 81.304967 101 32984ft 489kts
07-May-18 14:43 67.961948 81.658275 102 32984ft 488kts
07-May-18 14:44 67.930133 82.008692 102 32984ft 488kts
07-May-18 14:45 67.897655 82.358789 102 32983ft 488kts
07-May-18 14:46 67.864491 82.707877 102 32987ft 488kts
07-May-18 14:47 67.830140 83.056503 103 32994ft 488kts
07-May-18 14:48 67.795513 83.403515 103 32994ft 487kts
07-May-18 14:49 67.760012 83.749258 103 32994ft 486kts
07-May-18 14:50 67.724134 84.092745 104 32994ft 486kts
07-May-18 14:51 67.687301 84.435116 104 32993ft 486kts
07-May-18 14:52 67.649709 84.778029 104 32993ft 487kts
07-May-18 14:53 67.611506 85.119262 104 32988ft 487kts
07-May-18 14:54 67.572357 85.457957 105 32980ft 486kts
07-May-18 14:55 67.532910 85.796107 105 32980ft 485kts
07-May-18 14:56 67.492460 86.132743 105 32983ft 485kts
07-May-18 14:57 67.451620 86.466982 106 32993ft 485kts
07-May-18 14:58 67.413126 86.803609 103 32978ft 486kts
07-May-18 14:59 67.378477 87.143043 103 32961ft 485kts
07-May-18 15:00 67.343373 87.481501 103 32961ft 485kts
07-May-18 15:01 67.307175 87.817329 103 32961ft 484kts
07-May-18 15:02 67.270388 88.152710 104 32961ft 484kts
07-May-18 15:03 67.232980 88.487085 104 32961ft 485kts
07-May-18 15:04 67.194584 88.820589 105 32960ft 486kts
07-May-18 15:05 67.155362 89.154816 105 32960ft 486kts
07-May-18 15:06 67.114606 89.485991 106 32963ft 486kts
07-May-18 15:07 67.073507 89.815843 106 32963ft 486kts
07-May-18 15:08 67.031346 90.146419 106 32963ft 487kts
07-May-18 15:09 66.988463 90.474875 107 32962ft 487kts
07-May-18 15:10 66.945021 90.802605 107 32963ft 487kts
07-May-18 15:11 66.901013 91.129372 107 32962ft 488kts
07-May-18 15:12 66.856207 91.455384 108 32962ft 488kts
07-May-18 15:13 66.810552 91.780680 108 32962ft 489kts
07-May-18 15:14 66.764299 92.104617 108 32962ft 489kts
07-May-18 15:15 66.717358 92.428676 109 32972ft 490kts
07-May-18 15:16 66.669686 92.750208 109 33031ft 490kts
07-May-18 15:17 66.621110 93.072036 110 33061ft 490kts
07-May-18 15:18 66.572135 93.391300 110 33062ft 490kts
07-May-18 15:19 66.522533 93.710303 110 33062ft 490kts
07-May-18 15:20 66.472234 94.027732 111 33063ft 491kts
07-May-18 15:21 66.420969 94.344425 111 33063ft 491kts
07-May-18 15:22 66.369038 94.660823 112 33063ft 491kts
07-May-18 15:23 66.316764 94.974314 112 33063ft 491kts
07-May-18 15:24 66.263739 95.286451 112 33059ft 491kts
07-May-18 15:25 66.210269 95.598718 113 33060ft 492kts
07-May-18 15:26 66.155805 95.910476 113 33060ft 493kts
07-May-18 15:27 66.100967 96.220561 113 33061ft 493kts
07-May-18 15:27 66.054746 96.476647 114 33061ft 492kts
07-May-18 15:28 65.998669 96.784581 114 33061ft 492kts
07-May-18 15:29 65.941601 97.092388 115 33062ft 495kts
07-May-18 15:30 65.883972 97.398322 115 33070ft 495kts
07-May-18 15:31 65.825895 97.702159 115 33071ft 494kts
07-May-18 15:32 65.767041 98.004896 116 33071ft 494kts
07-May-18 15:33 65.707805 98.306487 116 33073ft 494kts
07-May-18 15:34 65.647908 98.606835 116 33074ft 495kts
07-May-18 15:36 65.576884 98.957071 117 33075ft 496kts
07-May-18 15:36 65.525374 99.206067 117 33075ft 497kts
07-May-18 15:37 65.463421 99.503513 118 33076ft 497kts
07-May-18 15:38 65.400831 99.799566 118 33077ft 497kts
07-May-18 15:39 65.337524 100.094117 118 33078ft 497kts
07-May-18 15:40 65.274104 100.386700 119 33078ft 497kts
07-May-18 15:41 65.209364 100.680404 119 33079ft 498kts
07-May-18 15:42 65.144440 100.971024 119 33080ft 499kts
07-May-18 15:43 65.078590 101.261935 120 33081ft 499kts
07-May-18 15:44 65.012423 101.550459 120 33080ft 499kts
07-May-18 15:45 64.945604 101.837984 121 33134ft 499kts
07-May-18 15:47 64.878157 102.124453 121 33163ft 500kts
07-May-18 15:48 64.809836 102.409937 122 33163ft 500kts
07-May-18 15:49 64.741316 102.693980 122 33165ft 500kts
07-May-18 15:50 64.672022 102.976389 122 33166ft 500kts
07-May-18 15:51 64.602308 103.257688 123 33141ft 501kts
07-May-18 15:52 64.532156 103.536876 123 33137ft 501kts
07-May-18 15:53 64.461126 103.816544 123 33136ft 502kts
07-May-18 15:54 64.388582 104.092028 125 33141ft 502kts
07-May-18 15:55 64.314896 104.366147 125 33138ft 502kts
07-May-18 15:56 64.240280 104.638402 125 33106ft 501kts
07-May-18 15:57 64.165932 104.908301 126 33106ft 500kts
07-May-18 15:58 64.091269 105.176173 126 33106ft 499kts
07-May-18 15:59 64.015745 105.443430 127 33101ft 499kts
07-May-18 16:00 63.939990 105.708407 127 33100ft 500kts
07-May-18 16:01 63.863610 105.972330 128 33100ft 499kts
07-May-18 16:02 63.786884 106.233807 128 33100ft 499kts
07-May-18 16:03 63.709861 106.494502 129 33100ft 499kts
07-May-18 16:04 63.631997 106.754369 129 33100ft 499kts
07-May-18 16:05 63.553949 107.011828 130 33099ft 499kts
07-May-18 16:06 63.475632 107.267952 130 33099ft 498kts
07-May-18 16:07 63.396624 107.522433 131 33081ft 498kts
07-May-18 16:08 63.317442 107.775580 131 33070ft 498kts
07-May-18 16:09 63.236944 108.030139 131 33070ft 504kts
07-May-18 16:10 63.155898 108.283447 132 33070ft 504kts
07-May-18 16:11 63.074126 108.535694 132 33069ft 504kts
07-May-18 16:12 62.992422 108.785932 130 33048ft 506kts
07-May-18 16:13 62.909966 109.035298 132 33078ft 507kts
07-May-18 16:14 62.828499 109.277945 135 33064ft 487kts
07-May-18 16:15 62.745423 109.520628 135 33048ft 504kts
07-May-18 16:16 62.661728 109.763775 134 33090ft 500kts
07-May-18 16:17 62.578590 110.006450 135 33064ft 502kts
07-May-18 16:18 62.494616 110.248047 135 33062ft 501kts
07-May-18 16:19 62.410418 110.486988 136 33061ft 499kts
07-May-18 16:20 62.325697 110.723615 136 33060ft 499kts
07-May-18 16:21 62.240694 110.959312 137 33058ft 497kts
07-May-18 16:22 62.155495 111.193210 137 33000ft 497kts
07-May-18 16:23 62.070323 111.424823 138 32992ft 496kts
07-May-18 16:24 61.984793 111.654885 139 32978ft 494kts
07-May-18 16:25 61.898788 111.884264 139 32995ft 496kts
07-May-18 16:26 61.813057 112.111239 138 32978ft 494kts
07-May-18 16:27 61.727060 112.336028 139 33002ft 490kts
07-May-18 16:28 61.640775 112.559230 139 32981ft 493kts
07-May-18 16:29 61.553423 112.782117 141 32979ft 492kts
07-May-18 16:30 61.465719 113.002609 141 32978ft 493kts
07-May-18 16:31 61.377861 113.223870 141 32978ft 494kts
07-May-18 16:32 61.289442 113.443055 141 32987ft 493kts
07-May-18 16:33 61.201000 113.660823 141 32987ft 493kts
07-May-18 16:34 61.112567 113.877205 142 32987ft 492kts
07-May-18 16:35 61.023146 114.092351 142 32987ft 492kts
07-May-18 16:36 60.933585 114.305629 142 32987ft 493kts
07-May-18 16:37 60.843751 114.518551 142 32987ft 494kts
07-May-18 16:38 60.753693 114.731088 142 32987ft 494kts
07-May-18 16:39 60.663249 114.941357 142 32987ft 492kts
07-May-18 16:40 60.571946 115.149121 142 32987ft 492kts
07-May-18 16:41 60.480530 115.355150 143 32987ft 491kts
07-May-18 16:42 60.388463 115.559755 143 32987ft 490kts
07-May-18 16:43 60.296424 115.762453 143 32987ft 489kts
07-May-18 16:44 60.204247 115.964981 143 32988ft 489kts
07-May-18 16:45 60.111994 116.165099 143 32988ft 489kts
07-May-18 16:46 60.019014 116.364785 143 32988ft 489kts
07-May-18 16:47 59.926520 116.563301 142 32988ft 490kts
07-May-18 16:48 59.833022 116.762658 142 32979ft 492kts
07-May-18 16:49 59.739545 116.960561 142 32979ft 493kts
07-May-18 16:50 59.645189 117.158225 142 32979ft 493kts
07-May-18 16:51 59.550338 117.354609 142 32980ft 494kts
07-May-18 16:52 59.455067 117.549354 142 32981ft 493kts
07-May-18 16:53 59.359609 117.742645 142 32983ft 493kts
07-May-18 16:54 59.264000 117.934625 142 32984ft 493kts
07-May-18 16:55 59.167797 118.127082 141 32985ft 494kts
07-May-18 16:56 59.071823 118.318159 141 32986ft 493kts
07-May-18 16:57 58.975477 118.507375 142 32986ft 493kts
07-May-18 16:58 58.878955 118.695194 142 32987ft 492kts
07-May-18 16:59 58.781761 118.882614 142 32990ft 493kts
07-May-18 17:00 58.684376 119.068517 142 32992ft 493kts
07-May-18 17:01 58.586973 119.253436 142 32992ft 493kts
07-May-18 17:02 58.489225 119.437532 141 32994ft 493kts
07-May-18 17:03 58.391164 119.621417 141 32995ft 493kts
07-May-18 17:04 58.293464 119.803412 141 32996ft 492kts
07-May-18 17:05 58.195443 119.984048 141 32997ft 491kts
07-May-18 17:06 58.097047 120.163793 141 32998ft 491kts
07-May-18 17:07 57.997972 120.342664 142 33000ft 491kts
07-May-18 17:08 57.899417 120.519983 141 33001ft 492kts
07-May-18 17:09 57.800055 120.697824 141 33014ft 492kts
07-May-18 17:10 57.700631 120.874485 141 33029ft 492kts
07-May-18 17:11 57.601103 121.049808 141 33030ft 493kts
07-May-18 17:12 57.500928 121.224538 141 33032ft 494kts
07-May-18 17:13 57.400224 121.398567 141 33033ft 494kts
07-May-18 17:14 57.299506 121.571067 141 33034ft 494kts
07-May-18 17:15 57.198499 121.743469 141 33036ft 494kts
07-May-18 17:16 57.097201 121.915226 141 33037ft 494kts
07-May-18 17:17 56.995855 122.085934 140 33039ft 495kts
07-May-18 17:18 56.894149 122.256169 140 33041ft 495kts
07-May-18 17:19 56.792248 122.425066 140 33043ft 495kts
07-May-18 17:20 56.690206 122.592582 140 33046ft 495kts
07-May-18 17:21 56.587473 122.759743 140 33048ft 495kts
07-May-18 17:22 56.484651 122.925712 140 33051ft 495kts
07-May-18 17:23 56.381375 123.091431 140 33051ft 496kts
07-May-18 17:24 56.278224 123.256698 140 33040ft 496kts
07-May-18 17:25 56.174900 123.421434 139 33043ft 497kts
07-May-18 17:26 56.071222 123.585387 139 33046ft 497kts
07-May-18 17:27 55.967348 123.748139 139 33050ft 497kts
07-May-18 17:28 55.863198 123.909785 139 33054ft 497kts
07-May-18 17:29 55.758430 124.070606 140 33058ft 497kts
07-May-18 17:30 55.653736 124.230422 139 33062ft 497kts
07-May-18 17:31 55.548853 124.389578 139 33066ft 497kts
07-May-18 17:32 55.443442 124.548398 139 33071ft 497kts
07-May-18 17:33 55.337830 124.705729 139 33075ft 497kts
07-May-18 17:34 55.232399 124.862792 138 33080ft 497kts
07-May-18 17:35 55.127725 125.020208 138 33085ft 496kts
07-May-18 17:36 55.023271 125.176719 138 33090ft 496kts
07-May-18 17:37 54.918557 125.333648 138 33141ft 496kts
07-May-18 17:38 54.813841 125.489819 138 33148ft 496kts
07-May-18 17:39 54.709192 125.644808 138 33152ft 496kts
07-May-18 17:40 54.604009 125.799264 137 33156ft 495kts
07-May-18 17:41 54.499048 125.952414 137 33160ft 495kts
07-May-18 17:42 54.393707 126.104831 138 33163ft 494kts
07-May-18 17:43 54.288207 126.255953 138 33171ft 494kts
07-May-18 17:44 54.182467 126.405809 138 33181ft 494kts
07-May-18 17:45 54.076464 126.555094 138 33184ft 494kts
07-May-18 17:45 53.988111 126.678508 138 33186ft 493kts
07-May-18 17:46 53.882310 126.825832 138 33189ft 490kts
07-May-18 17:47 53.777032 126.971250 138 33191ft 489kts
07-May-18 17:48 53.672650 127.118307 136 33194ft 487kts
07-May-18 17:49 53.573056 127.272613 135 33196ft 486kts
07-May-18 17:50 53.473440 127.426738 135 33193ft 485kts
07-May-18 17:51 53.374205 127.579182 135 33194ft 485kts
07-May-18 17:52 53.274514 127.731872 136 33196ft 484kts
07-May-18 17:53 53.174965 127.883312 136 33196ft 483kts
07-May-18 17:54 53.075615 128.032687 136 33198ft 481kts
07-May-18 17:55 52.976364 128.180406 136 33200ft 477kts
07-May-18 17:56 52.877346 128.327382 136 33188ft 476kts
07-May-18 17:57 52.778721 128.472671 136 33190ft 475kts
07-May-18 17:58 52.679939 128.617261 136 33192ft 474kts
07-May-18 17:59 52.581341 128.760820 136 33195ft 473kts
07-May-18 18:00 52.482674 128.903475 136 33197ft 471kts
07-May-18 18:02 52.384417 129.044654 136 33198ft 470kts
07-May-18 18:03 52.286042 129.185457 136 33200ft 468kts
07-May-18 18:04 52.188068 129.324919 136 33201ft 466kts
07-May-18 18:05 52.090613 129.462812 136 33202ft 463kts
07-May-18 18:06 51.993339 129.599672 136 33203ft 462kts
07-May-18 18:07 51.896045 129.735063 136 33204ft 460kts
07-May-18 18:08 51.798954 129.869430 136 33208ft 460kts
07-May-18 18:09 51.701703 130.003593 136 33208ft 460kts
07-May-18 18:10 51.604475 130.137077 136 33208ft 459kts
07-May-18 18:11 51.506835 130.270269 136 33208ft 459kts
07-May-18 18:12 51.409065 130.402579 136 33207ft 460kts
07-May-18 18:13 51.311191 130.533678 136 33207ft 460kts
07-May-18 18:14 51.213195 130.663802 136 33206ft 458kts
07-May-18 18:15 51.114825 130.794411 135 33206ft 458kts
07-May-18 18:16 51.016932 130.924106 136 33204ft 458kts
07-May-18 18:17 50.919008 131.053016 135 33205ft 457kts
07-May-18 18:18 50.821009 131.181228 135 33204ft 457kts
07-May-18 18:19 50.723153 131.308508 135 33203ft 456kts
07-May-18 18:20 50.624810 131.435822 135 33202ft 455kts
07-May-18 18:21 50.527202 131.561692 135 33201ft 454kts
07-May-18 18:22 50.429170 131.687355 135 33209ft 453kts
07-May-18 18:23 50.331560 131.811425 135 33206ft 452kts
07-May-18 18:24 50.233747 131.934956 135 33196ft 452kts
07-May-18 18:25 50.135867 132.057785 135 33197ft 451kts
07-May-18 18:26 50.038239 132.180676 133 33197ft 449kts
07-May-18 18:27 49.949460 132.315821 129 33197ft 447kts
07-May-18 18:28 49.862395 132.454158 129 33197ft 448kts
07-May-18 18:29 49.774642 132.592103 129 33198ft 451kts
07-May-18 18:30 49.686475 132.730571 129 33198ft 452kts
07-May-18 18:31 49.597919 132.868884 130 33198ft 454kts
07-May-18 18:32 49.508690 133.006448 130 33198ft 455kts
07-May-18 18:33 49.418761 133.144272 130 33199ft 456kts
07-May-18 18:34 49.328644 133.281148 130 33199ft 456kts
07-May-18 18:35 49.238017 133.417885 130 33199ft 457kts
07-May-18 18:36 49.165359 133.573926 116 33203ft 450kts
07-May-18 18:37 49.103491 133.739965 116 33200ft 451kts
07-May-18 18:38 49.040391 133.905956 117 33200ft 453kts
07-May-18 18:39 48.975824 134.070854 117 33200ft 454kts
07-May-18 18:40 48.910714 134.236062 117 33200ft 455kts
07-May-18 18:41 48.848319 134.403900 116 33200ft 457kts
07-May-18 18:42 48.785862 134.572040 116 33201ft 458kts
07-May-18 18:43 48.722862 134.739552 116 33201ft 458kts
07-May-18 18:44 48.659443 134.907666 117 33201ft 459kts
07-May-18 18:45 48.596133 135.076146 116 33203ft 460kts
07-May-18 18:46 48.515952 135.224782 139 33204ft 471kts
07-May-18 18:47 48.389068 135.286953 167 33246ft 492kts
07-May-18 18:48 48.251566 135.302700 171 33183ft 488kts
07-May-18 18:49 48.115311 135.323304 168 33195ft 497kts
07-May-18 18:50 47.979010 135.350684 168 33187ft 494kts
07-May-18 18:51 47.842592 135.381404 168 33191ft 493kts
07-May-18 18:52 47.706943 135.413268 167 33193ft 493kts
07-May-18 18:53 47.570873 135.446029 167 33192ft 496kts
07-May-18 18:54 47.434520 135.479218 167 33199ft 498kts
07-May-18 18:55 47.298298 135.510912 169 33195ft 493kts
07-May-18 18:56 47.161554 135.542934 169 33200ft 502kts
07-May-18 18:57 47.024615 135.573845 169 33203ft 498kts
07-May-18 18:58 46.887465 135.605739 169 33203ft 498kts
07-May-18 18:59 46.750338 135.638621 169 33203ft 499kts
07-May-18 19:00 46.613509 135.673227 169 33204ft 500kts
07-May-18 19:01 46.476601 135.707749 170 33204ft 500kts
07-May-18 19:02 46.339112 135.741382 171 33204ft 501kts
07-May-18 19:03 46.201776 135.773120 171 33206ft 500kts
07-May-18 19:04 46.063848 135.805060 171 33205ft 501kts
07-May-18 19:05 45.926221 135.837999 171 33205ft 501kts
07-May-18 19:06 45.788793 135.870217 171 33205ft 501kts
07-May-18 19:07 45.651308 135.902547 171 33205ft 501kts
07-May-18 19:08 45.513516 135.934988 172 33201ft 501kts
07-May-18 19:09 45.375975 135.967808 172 33188ft 501kts
07-May-18 19:10 45.238279 135.999449 173 33187ft 502kts
07-May-18 19:11 45.100266 136.031596 174 33186ft 501kts
07-May-18 19:12 44.963082 136.063143 174 33186ft 501kts
07-May-18 19:13 44.825644 136.094685 175 33185ft 500kts
07-May-18 19:14 44.687888 136.126202 175 33184ft 500kts
07-May-18 19:15 44.550513 136.156828 176 33183ft 500kts
07-May-18 19:16 44.412932 136.187599 176 33182ft 500kts
07-May-18 19:17 44.275809 136.218968 176 33182ft 500kts
07-May-18 19:18 44.138656 136.250516 176 33181ft 500kts
07-May-18 19:19 44.001093 136.281397 176 33182ft 500kts
07-May-18 19:20 43.863829 136.311713 177 33179ft 499kts
07-May-18 19:21 43.726811 136.341588 177 33178ft 499kts
07-May-18 19:22 43.589408 136.371738 177 33177ft 499kts
07-May-18 19:23 43.452867 136.402243 177 33176ft 498kts
07-May-18 19:24 43.315692 136.432046 178 33185ft 498kts
07-May-18 19:25 43.178966 136.461499 178 33175ft 498kts
07-May-18 19:26 43.042194 136.491352 179 33160ft 495kts
07-May-18 19:27 42.906149 136.519997 179 33158ft 495kts
07-May-18 19:28 42.770203 136.549006 180 33137ft 494kts
07-May-18 19:29 42.634472 136.578258 180 33135ft 494kts
07-May-18 19:30 42.498532 136.606632 180 33133ft 493kts
07-May-18 19:31 42.362902 136.634656 181 33107ft 492kts
07-May-18 19:32 42.227366 136.662758 181 33101ft 493kts
07-May-18 19:33 42.091988 136.690944 181 33098ft 493kts
07-May-18 19:34 41.956545 136.719353 182 33094ft 490kts
07-May-18 19:35 41.822097 136.748018 182 33092ft 489kts
07-May-18 19:36 41.688100 136.775685 182 33090ft 488kts
07-May-18 19:37 41.554022 136.820240 174 33097ft 501kts
07-May-18 19:38 41.420448 136.875434 175 33085ft 501kts
07-May-18 19:39 41.287964 136.930164 176 33081ft 497kts
07-May-18 19:40 41.155661 136.984068 176 33073ft 497kts
07-May-18 19:41 41.023356 137.037854 177 33067ft 496kts
07-May-18 19:42 40.891613 137.090152 177 33064ft 495kts
07-May-18 19:43 40.759753 137.142726 177 33060ft 495kts
07-May-18 19:44 40.627737 137.195904 177 33033ft 495kts
07-May-18 19:45 40.496229 137.247668 178 33034ft 493kts
07-May-18 19:46 40.364804 137.299203 178 33029ft 491kts
07-May-18 19:47 40.234220 137.350719 178 33006ft 490kts
07-May-18 19:48 40.103591 137.402438 179 33005ft 490kts
07-May-18 19:49 39.973012 137.453989 178 33002ft 491kts
07-May-18 19:50 39.842571 137.506700 179 33000ft 489kts
07-May-18 19:51 39.712189 137.558790 178 32990ft 490kts
07-May-18 19:52 39.581765 137.611034 178 32979ft 490kts
07-May-18 19:53 39.451173 137.663337 178 32976ft 490kts
07-May-18 19:54 39.320846 137.714775 178 32972ft 491kts
07-May-18 19:55 39.193809 137.793415 160 32980ft 534kts
07-May-18 19:56 39.075712 137.914986 152 32969ft 549kts
07-May-18 19:57 38.960392 138.043921 152 32964ft 550kts
07-May-18 19:58 38.843867 138.172460 152 32961ft 551kts
07-May-18 19:58 38.747182 138.279143 151 32956ft 550kts
07-May-18 20:00 38.611332 138.426397 153 32952ft 548kts
07-May-18 20:00 38.513478 138.531095 152 32950ft 549kts
07-May-18 20:01 38.396538 138.655932 153 32947ft 548kts
07-May-18 20:02 38.278488 138.779396 153 32943ft 550kts
07-May-18 20:03 38.160561 138.902993 153 32939ft 550kts
07-May-18 20:04 38.042276 139.026829 153 32936ft 551kts
07-May-18 20:05 37.928361 139.159452 143 32937ft 567kts
07-May-18 20:06 37.826502 139.314034 139 32937ft 573kts
07-May-18 20:07 37.727343 139.471357 139 32948ft 575kts
07-May-18 20:08 37.626760 139.628490 139 32978ft 575kts
07-May-18 20:09 37.525713 139.785409 139 32991ft 575kts
07-May-18 20:10 37.424684 139.941706 139 33006ft 575kts
07-May-18 20:11 37.323782 140.096650 139 33017ft 573kts
07-May-18 20:12 37.222405 140.250800 140 33023ft 572kts
07-May-18 20:13 37.120975 140.403537 139 33023ft 570kts
07-May-18 20:14 37.019903 140.556577 139 33024ft 569kts
07-May-18 20:15 36.916601 140.704748 151 33019ft 547kts
07-May-18 20:17 36.786132 140.753117 199 33022ft 459kts
07-May-18 20:18 36.678520 140.697616 216 31529ft 391kts
07-May-18 20:19 36.581418 140.643206 211 29724ft 376kts
07-May-18 20:20 36.483584 140.601002 207 27848ft 370kts
07-May-18 20:21 36.385890 140.563043 206 25893ft 365kts
07-May-18 20:22 36.301489 140.532008 206 24090ft 309kts
07-May-18 20:23 36.220188 140.505056 204 21418ft 303kts
07-May-18 20:24 36.141350 140.495641 171 18139ft 301kts
07-May-18 20:25 36.083094 140.577649 124 16359ft 358kts
07-May-18 20:26 36.025611 140.671324 139 15185ft 319kts
07-May-18 20:27 35.955777 140.735957 155 13658ft 309kts
07-May-18 20:28 35.877659 140.776372 171 12385ft 299kts
07-May-18 20:29 35.797721 140.791910 186 11185ft 264kts
07-May-18 20:30 35.723669 140.785780 188 10063ft 273kts
07-May-18 20:31 35.651122 140.758809 202 8918ft 262kts
07-May-18 20:32 35.597636 140.724681 216 7866ft 217kts
07-May-18 20:33 35.548301 140.680570 216 6495ft 213kts
07-May-18 20:34 35.509968 140.626351 233 5090ft 210kts
07-May-18 20:35 35.511133 140.564728 302 3981ft 163kts
07-May-18 20:36 35.542159 140.537561 329 4169ft 131kts
07-May-18 20:37 35.572811 140.514210 334 3957ft 130kts
07-May-18 20:38 35.603661 140.491437 336 3388ft 128kts
07-May-18 20:39 35.633695 140.469929 335 2783ft 120kts
07-May-18 20:40 35.664016 140.448623 333 2149ft 124kts
07-May-18 20:41 35.693293 140.427170 333 1470ft 123kts
07-May-18 20:42 35.722877 140.405273 333 945ft 138kts
07-May-18 20:43 35.754151 140.382836 329 162ft 95kts
07-May-18 20:44 35.763562 140.377982 1 153ft 13kts
07-May-18 20:45 35.767048 140.380541 343 153ft 19kts
07-May-18 20:46 35.767224 140.382324 135 153ft 19kts
07-May-18 20:47 35.766954 140.383093 97 153ft 0kts
07-May-18 20:48 35.763684 140.383333 60 153ft 0kts
07-May-18 20:49 35.763619 140.383194 60 153ft 0kts

Navigation Log

Ident Type
Flight plan parsing failed, navigation log unavailable